UAE930 HECA-OMDB
Flight info
| Callsign | UAE930 |
|---|---|
| Flight time | N/A |
| Altitude | 41000 |
| Route | OBTAV L315 HGD M872 PMA Y214 RAPMA/N0522F290 Y214 RIBOT DCT ELUDA G783 ASPED Q308 RUDAT/N0480F240 M762 MIVEK P574 IMPED |
| Aircraft | A359/H-SDE2E3GHIJ3J4J5LM1ORWXY/LB1D1 |
Departure
| Time | 2026-05-08 07:04 |
|---|---|
| Airport | Cairo International Airport (HECA) |
Arrival
| Time | N/A |
|---|---|
| Airport | Dubai International Airport (OMDB) |
| Time | Latitude | Longitude | Altitude | Speed | Heading |
|---|---|---|---|---|---|
| 2026-05-08 06:25 | 30.11239 | 31.40226 | 380 ft | 0 kts | 196° |
| 2026-05-08 06:53 | 30.11242 | 31.40227 | 380 ft | 3 kts | 197° |
| 2026-05-08 06:53 | 30.11267 | 31.40236 | 380 ft | 4 kts | 198° |
| 2026-05-08 06:54 | 30.11287 | 31.40244 | 380 ft | 4 kts | 219° |
| 2026-05-08 06:54 | 30.11299 | 31.40261 | 380 ft | 4 kts | 258° |
| 2026-05-08 06:54 | 30.11301 | 31.40290 | 380 ft | 4 kts | 278° |
| 2026-05-08 06:54 | 30.11297 | 31.40315 | 380 ft | 1 kts | 287° |
| 2026-05-08 06:55 | 30.11296 | 31.40320 | 380 ft | 0 kts | 287° |
| 2026-05-08 06:59 | 30.11297 | 31.40316 | 380 ft | 4 kts | 287° |
| 2026-05-08 06:59 | 30.11315 | 31.40240 | 385 ft | 12 kts | 286° |
| 2026-05-08 06:59 | 30.11395 | 31.40177 | 380 ft | 18 kts | 16° |
| 2026-05-08 06:59 | 30.11451 | 31.40318 | 380 ft | 21 kts | 118° |
| 2026-05-08 07:00 | 30.11329 | 31.40438 | 380 ft | 28 kts | 140° |
| 2026-05-08 07:00 | 30.11162 | 31.40604 | 380 ft | 32 kts | 139° |
| 2026-05-08 07:00 | 30.11043 | 31.40679 | 381 ft | 14 kts | 198° |
| 2026-05-08 07:00 | 30.10962 | 31.40591 | 382 ft | 19 kts | 229° |
| 2026-05-08 07:01 | 30.10868 | 31.40465 | 380 ft | 23 kts | 229° |
| 2026-05-08 07:01 | 30.10757 | 31.40320 | 380 ft | 26 kts | 228° |
| 2026-05-08 07:01 | 30.10629 | 31.40150 | 380 ft | 29 kts | 229° |
| 2026-05-08 07:01 | 30.10489 | 31.39966 | 380 ft | 32 kts | 228° |
| 2026-05-08 07:02 | 30.10335 | 31.39761 | 380 ft | 35 kts | 229° |
| 2026-05-08 07:02 | 30.10201 | 31.39590 | 380 ft | 24 kts | 221° |
| 2026-05-08 07:02 | 30.10148 | 31.39581 | 380 ft | 7 kts | 156° |
| 2026-05-08 07:02 | 30.10077 | 31.39643 | 378 ft | 19 kts | 141° |
| 2026-05-08 07:03 | 30.10005 | 31.39780 | 380 ft | 18 kts | 88° |
| 2026-05-08 07:03 | 30.10044 | 31.39926 | 376 ft | 21 kts | 56° |
| 2026-05-08 07:03 | 30.10158 | 31.40077 | 379 ft | 49 kts | 49° |
| 2026-05-08 07:03 | 30.10637 | 31.40713 | 411 ft | 155 kts | 49° |
| 2026-05-08 07:04 | 30.11448 | 31.41765 | 1195 ft | 190 kts | 49° |
| 2026-05-08 07:04 | 30.12406 | 31.42969 | 2381 ft | 213 kts | 46° |
| 2026-05-08 07:04 | 30.13414 | 31.44188 | 3525 ft | 205 kts | 51° |
| 2026-05-08 07:04 | 30.13800 | 31.45740 | 4422 ft | 219 kts | 88° |
| 2026-05-08 07:05 | 30.13218 | 31.47515 | 4903 ft | 258 kts | 124° |
| 2026-05-08 07:05 | 30.11686 | 31.48700 | 5717 ft | 279 kts | 160° |
| 2026-05-08 07:05 | 30.09741 | 31.49004 | 6667 ft | 288 kts | 176° |
| 2026-05-08 07:05 | 30.07767 | 31.49498 | 7566 ft | 290 kts | 152° |
| 2026-05-08 07:06 | 30.05995 | 31.50598 | 8563 ft | 295 kts | 145° |
| 2026-05-08 07:06 | 30.04269 | 31.51933 | 9628 ft | 301 kts | 142° |
| 2026-05-08 07:06 | 30.02544 | 31.53395 | 10522 ft | 313 kts | 141° |
| 2026-05-08 07:06 | 30.00727 | 31.54970 | 10994 ft | 338 kts | 141° |
| 2026-05-08 07:07 | 29.98799 | 31.56624 | 11455 ft | 360 kts | 142° |
| 2026-05-08 07:07 | 29.96727 | 31.58359 | 12170 ft | 371 kts | 143° |
| 2026-05-08 07:07 | 29.94585 | 31.60113 | 13007 ft | 379 kts | 144° |
| 2026-05-08 07:07 | 29.92430 | 31.61852 | 13886 ft | 384 kts | 145° |
| 2026-05-08 07:08 | 29.90213 | 31.63632 | 14650 ft | 390 kts | 145° |
| 2026-05-08 07:08 | 29.87975 | 31.65422 | 15391 ft | 396 kts | 145° |
| 2026-05-08 07:08 | 29.85695 | 31.67246 | 16153 ft | 402 kts | 145° |
| 2026-05-08 07:08 | 29.83399 | 31.69086 | 16906 ft | 408 kts | 145° |
| 2026-05-08 07:09 | 29.81039 | 31.70979 | 17665 ft | 414 kts | 145° |
| 2026-05-08 07:09 | 29.78669 | 31.72882 | 18435 ft | 421 kts | 145° |
| 2026-05-08 07:09 | 29.76233 | 31.74836 | 19092 ft | 428 kts | 145° |
| 2026-05-08 07:09 | 29.73793 | 31.76792 | 19734 ft | 434 kts | 145° |
| 2026-05-08 07:10 | 29.71293 | 31.78797 | 20398 ft | 440 kts | 145° |
| 2026-05-08 07:10 | 29.68743 | 31.80840 | 21003 ft | 447 kts | 145° |
| 2026-05-08 07:10 | 29.66172 | 31.82899 | 21295 ft | 459 kts | 145° |
| 2026-05-08 07:10 | 29.63538 | 31.85008 | 21679 ft | 466 kts | 144° |
| 2026-05-08 07:11 | 29.60854 | 31.87155 | 22178 ft | 471 kts | 144° |
| 2026-05-08 07:11 | 29.58134 | 31.89329 | 22661 ft | 477 kts | 144° |
| 2026-05-08 07:11 | 29.55384 | 31.91526 | 23175 ft | 482 kts | 144° |
| 2026-05-08 07:11 | 29.52640 | 31.93715 | 23685 ft | 487 kts | 144° |
| 2026-05-08 07:12 | 29.49834 | 31.95953 | 24104 ft | 492 kts | 144° |
| 2026-05-08 07:12 | 29.47024 | 31.98191 | 24577 ft | 496 kts | 144° |
| 2026-05-08 07:12 | 29.44163 | 32.00469 | 25038 ft | 500 kts | 144° |
| 2026-05-08 07:12 | 29.41313 | 32.02737 | 25514 ft | 504 kts | 144° |
| 2026-05-08 07:13 | 29.38407 | 32.05048 | 25981 ft | 508 kts | 144° |
| 2026-05-08 07:13 | 29.35475 | 32.07379 | 26452 ft | 512 kts | 144° |
| 2026-05-08 07:13 | 29.32560 | 32.09695 | 26909 ft | 516 kts | 144° |
| 2026-05-08 07:13 | 29.29587 | 32.12055 | 27376 ft | 520 kts | 144° |
| 2026-05-08 07:14 | 29.26625 | 32.14404 | 27810 ft | 524 kts | 143° |
| 2026-05-08 07:14 | 29.23611 | 32.16793 | 28289 ft | 527 kts | 143° |
| 2026-05-08 07:14 | 29.20577 | 32.19196 | 28721 ft | 531 kts | 143° |
| 2026-05-08 07:14 | 29.17521 | 32.21613 | 29166 ft | 535 kts | 143° |
| 2026-05-08 07:15 | 29.14476 | 32.24022 | 29601 ft | 538 kts | 143° |
| 2026-05-08 07:15 | 29.11377 | 32.26471 | 29989 ft | 543 kts | 143° |
| 2026-05-08 07:15 | 29.08253 | 32.28938 | 30358 ft | 546 kts | 143° |
| 2026-05-08 07:15 | 29.05131 | 32.31401 | 30705 ft | 549 kts | 143° |
| 2026-05-08 07:16 | 29.01979 | 32.33886 | 31040 ft | 552 kts | 143° |
| 2026-05-08 07:16 | 28.98988 | 32.36241 | 31366 ft | 555 kts | 143° |
| 2026-05-08 07:16 | 28.95790 | 32.38758 | 31697 ft | 558 kts | 143° |
| 2026-05-08 07:16 | 28.92622 | 32.41250 | 32020 ft | 560 kts | 143° |
| 2026-05-08 07:17 | 28.89392 | 32.43788 | 32330 ft | 563 kts | 143° |
| 2026-05-08 07:17 | 28.86181 | 32.46310 | 32687 ft | 564 kts | 143° |
| 2026-05-08 07:17 | 28.82937 | 32.48855 | 33117 ft | 564 kts | 143° |
| 2026-05-08 07:17 | 28.79691 | 32.51399 | 33522 ft | 564 kts | 143° |
| 2026-05-08 07:18 | 28.76490 | 32.53907 | 33935 ft | 563 kts | 143° |
| 2026-05-08 07:18 | 28.73244 | 32.56448 | 34334 ft | 562 kts | 143° |
| 2026-05-08 07:18 | 28.70043 | 32.58952 | 34762 ft | 560 kts | 143° |
| 2026-05-08 07:18 | 28.66830 | 32.61463 | 35210 ft | 556 kts | 144° |
| 2026-05-08 07:19 | 28.63664 | 32.63937 | 35675 ft | 553 kts | 144° |
| 2026-05-08 07:19 | 28.60471 | 32.66429 | 36074 ft | 551 kts | 144° |
| 2026-05-08 07:19 | 28.57341 | 32.68871 | 36466 ft | 549 kts | 144° |
| 2026-05-08 07:19 | 28.54188 | 32.71329 | 36832 ft | 547 kts | 144° |
| 2026-05-08 07:20 | 28.51040 | 32.73781 | 37198 ft | 545 kts | 144° |
| 2026-05-08 07:20 | 28.47932 | 32.76201 | 37562 ft | 543 kts | 145° |
| 2026-05-08 07:20 | 28.44840 | 32.78606 | 37903 ft | 541 kts | 145° |
| 2026-05-08 07:20 | 28.41730 | 32.81023 | 38238 ft | 540 kts | 145° |
| 2026-05-08 07:21 | 28.38621 | 32.83437 | 38574 ft | 538 kts | 145° |
| 2026-05-08 07:21 | 28.35536 | 32.85832 | 38867 ft | 536 kts | 146° |
| 2026-05-08 07:21 | 28.32451 | 32.88224 | 39028 ft | 537 kts | 146° |
| 2026-05-08 07:21 | 28.29352 | 32.90625 | 39044 ft | 536 kts | 146° |
| 2026-05-08 07:22 | 28.23236 | 32.95359 | 39039 ft | 536 kts | 146° |
| 2026-05-08 07:22 | 28.17061 | 33.00132 | 39034 ft | 536 kts | 146° |
| 2026-05-08 07:23 | 28.10892 | 33.04894 | 39030 ft | 536 kts | 146° |
| 2026-05-08 07:23 | 28.04713 | 33.09657 | 39025 ft | 537 kts | 146° |
| 2026-05-08 07:24 | 27.98588 | 33.14424 | 39018 ft | 537 kts | 144° |
| 2026-05-08 07:24 | 27.92515 | 33.19385 | 39015 ft | 537 kts | 144° |
| 2026-05-08 07:25 | 27.86462 | 33.24356 | 39010 ft | 538 kts | 144° |
| 2026-05-08 07:26 | 27.77369 | 33.31749 | 39131 ft | 538 kts | 145° |
| 2026-05-08 07:26 | 27.74328 | 33.34208 | 39356 ft | 537 kts | 145° |
| 2026-05-08 07:26 | 27.71299 | 33.36656 | 39635 ft | 534 kts | 145° |
| 2026-05-08 07:26 | 27.68277 | 33.39096 | 39891 ft | 533 kts | 145° |
| 2026-05-08 07:27 | 27.65266 | 33.41525 | 40091 ft | 532 kts | 145° |
| 2026-05-08 07:27 | 27.62282 | 33.43933 | 40298 ft | 531 kts | 146° |
| 2026-05-08 07:27 | 27.59272 | 33.46358 | 40501 ft | 531 kts | 146° |
| 2026-05-08 07:27 | 27.56264 | 33.48781 | 40696 ft | 530 kts | 146° |
| 2026-05-08 07:28 | 27.53266 | 33.51195 | 40913 ft | 529 kts | 146° |
| 2026-05-08 07:28 | 27.47246 | 33.56042 | 40991 ft | 531 kts | 146° |
| 2026-05-08 07:29 | 27.41266 | 33.60840 | 40998 ft | 530 kts | 146° |
| 2026-05-08 07:29 | 27.35254 | 33.65656 | 40994 ft | 530 kts | 146° |
| 2026-05-08 07:30 | 27.29266 | 33.70448 | 40996 ft | 530 kts | 146° |
| 2026-05-08 07:30 | 27.23274 | 33.75246 | 40988 ft | 530 kts | 146° |
| 2026-05-08 07:31 | 27.17975 | 33.81072 | 40992 ft | 532 kts | 126° |
| 2026-05-08 07:31 | 27.16084 | 33.84584 | 40989 ft | 531 kts | 114° |
| 2026-05-08 07:31 | 27.14568 | 33.88365 | 40991 ft | 531 kts | 111° |
| 2026-05-08 07:32 | 27.11810 | 33.96093 | 40993 ft | 532 kts | 110° |
| 2026-05-08 07:32 | 27.09127 | 34.03847 | 40990 ft | 533 kts | 110° |
| 2026-05-08 07:33 | 27.06415 | 34.11550 | 40985 ft | 533 kts | 110° |
| 2026-05-08 07:33 | 27.03651 | 34.19295 | 40984 ft | 533 kts | 111° |
| 2026-05-08 07:34 | 27.00892 | 34.26992 | 40967 ft | 534 kts | 111° |
| 2026-05-08 07:34 | 26.98109 | 34.34732 | 40963 ft | 534 kts | 111° |
| 2026-05-08 07:35 | 26.95332 | 34.42436 | 40974 ft | 534 kts | 111° |
| 2026-05-08 07:35 | 26.92542 | 34.50165 | 40973 ft | 534 kts | 111° |
| 2026-05-08 07:36 | 26.89754 | 34.57877 | 40961 ft | 534 kts | 111° |
| 2026-05-08 07:36 | 26.86969 | 34.65568 | 40959 ft | 535 kts | 111° |
| 2026-05-08 07:37 | 26.84178 | 34.73261 | 40969 ft | 535 kts | 111° |
| 2026-05-08 07:37 | 26.81370 | 34.80981 | 40962 ft | 535 kts | 111° |
| 2026-05-08 07:38 | 26.79034 | 34.87394 | 40959 ft | 535 kts | 111° |
| 2026-05-08 07:38 | 26.76216 | 34.95122 | 40960 ft | 535 kts | 111° |
| 2026-05-08 07:39 | 26.73417 | 35.02792 | 40960 ft | 535 kts | 111° |
| 2026-05-08 07:39 | 26.70590 | 35.10508 | 40952 ft | 535 kts | 111° |
| 2026-05-08 07:40 | 26.67762 | 35.18214 | 40950 ft | 536 kts | 112° |
| 2026-05-08 07:40 | 26.64930 | 35.25922 | 40950 ft | 535 kts | 112° |
| 2026-05-08 07:41 | 26.62095 | 35.33621 | 40948 ft | 535 kts | 112° |
| 2026-05-08 07:41 | 26.59269 | 35.41282 | 40941 ft | 535 kts | 112° |
| 2026-05-08 07:42 | 26.56428 | 35.48968 | 40942 ft | 535 kts | 112° |
| 2026-05-08 07:42 | 26.53540 | 35.56636 | 40951 ft | 535 kts | 113° |
| 2026-05-08 07:43 | 26.50601 | 35.64272 | 40933 ft | 534 kts | 113° |
| 2026-05-08 07:43 | 26.47683 | 35.71855 | 40938 ft | 534 kts | 113° |
| 2026-05-08 07:44 | 26.44755 | 35.79484 | 40926 ft | 534 kts | 113° |
| 2026-05-08 07:44 | 26.41832 | 35.87098 | 40921 ft | 533 kts | 113° |
| 2026-05-08 07:45 | 26.38905 | 35.94707 | 40912 ft | 533 kts | 114° |
| 2026-05-08 07:45 | 26.35994 | 36.02259 | 40925 ft | 533 kts | 114° |
| 2026-05-08 07:46 | 26.33058 | 36.09861 | 40909 ft | 533 kts | 114° |
| 2026-05-08 07:46 | 26.30116 | 36.17464 | 40901 ft | 533 kts | 114° |
| 2026-05-08 07:47 | 26.27179 | 36.25042 | 40915 ft | 532 kts | 114° |
| 2026-05-08 07:47 | 26.24252 | 36.32578 | 40913 ft | 532 kts | 114° |
| 2026-05-08 07:48 | 26.21303 | 36.40157 | 40912 ft | 532 kts | 115° |
| 2026-05-08 07:48 | 26.18357 | 36.47666 | 40896 ft | 531 kts | 117° |
| 2026-05-08 07:49 | 26.14931 | 36.54950 | 40911 ft | 530 kts | 120° |
| 2026-05-08 07:49 | 26.11384 | 36.62164 | 40909 ft | 530 kts | 121° |
| 2026-05-08 07:50 | 26.07834 | 36.69326 | 40908 ft | 530 kts | 121° |
| 2026-05-08 07:50 | 26.04270 | 36.76524 | 40910 ft | 530 kts | 121° |
| 2026-05-08 07:51 | 26.00712 | 36.83711 | 40911 ft | 530 kts | 121° |
| 2026-05-08 07:51 | 25.97179 | 36.90844 | 40910 ft | 530 kts | 121° |
| 2026-05-08 07:52 | 25.93617 | 36.98022 | 40920 ft | 530 kts | 121° |
| 2026-05-08 07:52 | 25.90047 | 37.05202 | 40920 ft | 530 kts | 122° |
| 2026-05-08 07:53 | 25.86473 | 37.12380 | 40923 ft | 530 kts | 122° |
| 2026-05-08 07:53 | 25.82900 | 37.19544 | 40924 ft | 531 kts | 122° |
| 2026-05-08 07:54 | 25.79334 | 37.26688 | 40931 ft | 531 kts | 122° |
| 2026-05-08 07:54 | 25.75764 | 37.33867 | 40933 ft | 532 kts | 122° |
| 2026-05-08 07:55 | 25.72181 | 37.41062 | 40930 ft | 532 kts | 122° |
| 2026-05-08 07:55 | 25.68610 | 37.48221 | 40933 ft | 532 kts | 122° |
| 2026-05-08 07:56 | 25.65016 | 37.55413 | 40935 ft | 532 kts | 122° |
| 2026-05-08 07:56 | 25.61416 | 37.62606 | 40927 ft | 532 kts | 122° |
| 2026-05-08 07:57 | 25.57833 | 37.69751 | 40922 ft | 532 kts | 122° |
| 2026-05-08 07:57 | 25.54239 | 37.76910 | 40923 ft | 531 kts | 123° |
| 2026-05-08 07:58 | 25.50671 | 37.84005 | 40913 ft | 530 kts | 123° |
| 2026-05-08 07:58 | 25.47082 | 37.91132 | 40908 ft | 529 kts | 123° |
| 2026-05-08 07:59 | 25.43490 | 37.98252 | 40900 ft | 528 kts | 123° |
| 2026-05-08 07:59 | 25.39933 | 38.05291 | 40902 ft | 527 kts | 123° |
| 2026-05-08 08:00 | 25.36360 | 38.12353 | 40899 ft | 525 kts | 123° |
| 2026-05-08 08:00 | 25.32782 | 38.19413 | 40901 ft | 525 kts | 124° |
| 2026-05-08 08:01 | 25.29210 | 38.26452 | 40900 ft | 524 kts | 124° |
| 2026-05-08 08:01 | 25.25665 | 38.33426 | 40906 ft | 523 kts | 124° |
| 2026-05-08 08:02 | 25.22090 | 38.40448 | 40912 ft | 522 kts | 125° |
| 2026-05-08 08:02 | 25.18534 | 38.47424 | 40912 ft | 521 kts | 125° |
| 2026-05-08 08:03 | 25.14976 | 38.54391 | 40916 ft | 520 kts | 126° |
| 2026-05-08 08:03 | 25.11443 | 38.61288 | 40919 ft | 519 kts | 126° |
| 2026-05-08 08:04 | 25.07875 | 38.68236 | 40925 ft | 519 kts | 126° |
| 2026-05-08 08:04 | 25.04314 | 38.75165 | 40926 ft | 518 kts | 126° |
| 2026-05-08 08:05 | 25.00776 | 38.82040 | 40940 ft | 517 kts | 126° |
| 2026-05-08 08:05 | 24.97784 | 38.87848 | 40942 ft | 517 kts | 126° |
| 2026-05-08 08:06 | 24.94227 | 38.94751 | 40946 ft | 517 kts | 126° |
| 2026-05-08 08:06 | 24.90686 | 39.01595 | 40949 ft | 517 kts | 127° |
| 2026-05-08 08:07 | 24.87108 | 39.08492 | 40955 ft | 517 kts | 127° |
| 2026-05-08 08:07 | 24.83559 | 39.15329 | 40955 ft | 517 kts | 127° |
| 2026-05-08 08:08 | 24.79993 | 39.22199 | 40959 ft | 517 kts | 127° |
| 2026-05-08 08:08 | 24.76421 | 39.29068 | 40961 ft | 516 kts | 127° |
| 2026-05-08 08:09 | 24.72845 | 39.35930 | 40970 ft | 516 kts | 127° |
| 2026-05-08 08:09 | 24.69347 | 39.42637 | 40969 ft | 515 kts | 127° |
| 2026-05-08 08:10 | 24.65775 | 39.49475 | 40987 ft | 515 kts | 127° |
| 2026-05-08 08:10 | 24.62200 | 39.56308 | 40997 ft | 515 kts | 127° |
| 2026-05-08 08:11 | 24.58654 | 39.63082 | 40987 ft | 513 kts | 128° |
| 2026-05-08 08:11 | 24.55426 | 39.70140 | 40987 ft | 525 kts | 116° |
| 2026-05-08 08:11 | 24.54487 | 39.74067 | 40990 ft | 534 kts | 105° |
| 2026-05-08 08:12 | 24.53940 | 39.78119 | 40989 ft | 537 kts | 103° |
| 2026-05-08 08:12 | 24.53140 | 39.86269 | 40989 ft | 539 kts | 101° |
| 2026-05-08 08:13 | 24.52419 | 39.94472 | 41001 ft | 539 kts | 102° |
| 2026-05-08 08:13 | 24.51665 | 40.02612 | 40998 ft | 538 kts | 102° |
| 2026-05-08 08:14 | 24.50873 | 40.10797 | 40993 ft | 538 kts | 102° |
| 2026-05-08 08:14 | 24.50067 | 40.18979 | 40997 ft | 537 kts | 103° |
| 2026-05-08 08:15 | 24.49264 | 40.27092 | 40994 ft | 537 kts | 103° |
| 2026-05-08 08:15 | 24.48453 | 40.35259 | 40991 ft | 537 kts | 103° |
| 2026-05-08 08:16 | 24.47641 | 40.43405 | 40993 ft | 536 kts | 103° |
| 2026-05-08 08:16 | 24.46829 | 40.51500 | 40992 ft | 536 kts | 103° |
| 2026-05-08 08:17 | 24.46008 | 40.59644 | 40994 ft | 536 kts | 104° |
| 2026-05-08 08:17 | 24.45182 | 40.67793 | 40993 ft | 535 kts | 104° |
| 2026-05-08 08:18 | 24.44358 | 40.75869 | 40994 ft | 535 kts | 104° |
| 2026-05-08 08:18 | 24.43526 | 40.83990 | 40997 ft | 535 kts | 104° |
| 2026-05-08 08:19 | 24.42689 | 40.92107 | 41001 ft | 535 kts | 104° |